sensor_id;sensor_type;location;lat;lon;timestamp;P1;durP1;ratioP1;P2;durP2;ratioP2
14847;SDS011;7516;43.570;1.448;2023-04-24T00:02:21;2.67;;;1.47;;
14847;SDS011;7516;43.570;1.448;2023-04-24T00:04:49;3.53;;;1.43;;
14847;SDS011;7516;43.570;1.448;2023-04-24T00:07:16;3.73;;;1.67;;
14847;SDS011;7516;43.570;1.448;2023-04-24T00:09:46;4.83;;;1.57;;
14847;SDS011;7516;43.570;1.448;2023-04-24T00:12:13;4.07;;;1.80;;
14847;SDS011;7516;43.570;1.448;2023-04-24T00:14:41;4.03;;;1.50;;
14847;SDS011;7516;43.570;1.448;2023-04-24T00:17:08;4.07;;;1.53;;
14847;SDS011;7516;43.570;1.448;2023-04-24T00:19:36;4.93;;;1.40;;
14847;SDS011;7516;43.570;1.448;2023-04-24T00:22:03;5.80;;;1.83;;
14847;SDS011;7516;43.570;1.448;2023-04-24T00:24:31;4.33;;;1.57;;
14847;SDS011;7516;43.570;1.448;2023-04-24T00:27:00;4.10;;;1.63;;
14847;SDS011;7516;43.570;1.448;2023-04-24T00:29:27;6.23;;;1.70;;
14847;SDS011;7516;43.570;1.448;2023-04-24T00:31:55;6.13;;;2.07;;
14847;SDS011;7516;43.570;1.448;2023-04-24T00:34:23;3.93;;;1.43;;
14847;SDS011;7516;43.570;1.448;2023-04-24T00:36:50;2.13;;;1.50;;
14847;SDS011;7516;43.570;1.448;2023-04-24T00:39:18;5.03;;;1.70;;
14847;SDS011;7516;43.570;1.448;2023-04-24T00:41:45;2.30;;;1.50;;
14847;SDS011;7516;43.570;1.448;2023-04-24T00:44:15;4.20;;;1.30;;
14847;SDS011;7516;43.570;1.448;2023-04-24T00:46:42;3.40;;;1.40;;
14847;SDS011;7516;43.570;1.448;2023-04-24T00:49:10;4.17;;;1.43;;
14847;SDS011;7516;43.570;1.448;2023-04-24T00:51:38;3.00;;;1.33;;
14847;SDS011;7516;43.570;1.448;2023-04-24T00:54:10;2.67;;;1.50;;
14847;SDS011;7516;43.570;1.448;2023-04-24T00:56:38;2.47;;;1.03;;
14847;SDS011;7516;43.570;1.448;2023-04-24T00:59:05;4.13;;;1.30;;
14847;SDS011;7516;43.570;1.448;2023-04-24T01:01:35;3.20;;;1.10;;
14847;SDS011;7516;43.570;1.448;2023-04-24T01:04:03;3.80;;;1.20;;
14847;SDS011;7516;43.570;1.448;2023-04-24T01:06:32;2.17;;;1.20;;
14847;SDS011;7516;43.570;1.448;2023-04-24T01:09:00;5.97;;;1.40;;
14847;SDS011;7516;43.570;1.448;2023-04-24T01:11:27;3.93;;;1.50;;
14847;SDS011;7516;43.570;1.448;2023-04-24T01:13:56;4.17;;;1.40;;
14847;SDS011;7516;43.570;1.448;2023-04-24T01:16:24;5.03;;;1.10;;
14847;SDS011;7516;43.570;1.448;2023-04-24T01:18:52;3.63;;;1.30;;
14847;SDS011;7516;43.570;1.448;2023-04-24T01:21:20;4.83;;;1.40;;
14847;SDS011;7516;43.570;1.448;2023-04-24T01:23:51;4.60;;;1.50;;
14847;SDS011;7516;43.570;1.448;2023-04-24T01:26:18;4.47;;;1.40;;
14847;SDS011;7516;43.570;1.448;2023-04-24T01:28:46;4.57;;;1.10;;
14847;SDS011;7516;43.570;1.448;2023-04-24T01:31:15;4.07;;;1.30;;
14847;SDS011;7516;43.570;1.448;2023-04-24T01:33:42;3.33;;;1.20;;
14847;SDS011;7516;43.570;1.448;2023-04-24T01:36:10;2.80;;;1.03;;
14847;SDS011;7516;43.570;1.448;2023-04-24T01:38:39;4.87;;;1.50;;
14847;SDS011;7516;43.570;1.448;2023-04-24T01:41:08;4.70;;;1.20;;
14847;SDS011;7516;43.570;1.448;2023-04-24T01:43:36;6.80;;;1.43;;
14847;SDS011;7516;43.570;1.448;2023-04-24T01:46:04;4.20;;;1.50;;
14847;SDS011;7516;43.570;1.448;2023-04-24T01:48:32;3.53;;;1.33;;
14847;SDS011;7516;43.570;1.448;2023-04-24T01:51:01;3.17;;;1.10;;
14847;SDS011;7516;43.570;1.448;2023-04-24T01:53:29;4.07;;;1.20;;
14847;SDS011;7516;43.570;1.448;2023-04-24T01:55:56;3.33;;;1.17;;
14847;SDS011;7516;43.570;1.448;2023-04-24T01:58:25;4.57;;;1.60;;
14847;SDS011;7516;43.570;1.448;2023-04-24T02:00:55;3.07;;;1.20;;
14847;SDS011;7516;43.570;1.448;2023-04-24T02:03:24;2.93;;;1.30;;
14847;SDS011;7516;43.570;1.448;2023-04-24T02:05:52;3.63;;;1.10;;
14847;SDS011;7516;43.570;1.448;2023-04-24T02:08:20;5.23;;;1.30;;
14847;SDS011;7516;43.570;1.448;2023-04-24T02:10:47;3.60;;;1.30;;
14847;SDS011;7516;43.570;1.448;2023-04-24T02:13:15;3.67;;;1.20;;
14847;SDS011;7516;43.570;1.448;2023-04-24T02:15:43;2.57;;;1.30;;
14847;SDS011;7516;43.570;1.448;2023-04-24T02:18:11;2.87;;;1.20;;
14847;SDS011;7516;43.570;1.448;2023-04-24T02:20:38;4.80;;;1.40;;
14847;SDS011;7516;43.570;1.448;2023-04-24T02:23:06;3.20;;;1.40;;
14847;SDS011;7516;43.570;1.448;2023-04-24T02:25:34;3.23;;;1.27;;
14847;SDS011;7516;43.570;1.448;2023-04-24T02:28:01;3.40;;;1.53;;
14847;SDS011;7516;43.570;1.448;2023-04-24T02:30:29;5.03;;;1.60;;
14847;SDS011;7516;43.570;1.448;2023-04-24T02:32:58;2.53;;;1.40;;
14847;SDS011;7516;43.570;1.448;2023-04-24T02:35:25;5.63;;;1.53;;
14847;SDS011;7516;43.570;1.448;2023-04-24T02:37:53;2.97;;;1.30;;
14847;SDS011;7516;43.570;1.448;2023-04-24T02:40:20;4.33;;;1.27;;
14847;SDS011;7516;43.570;1.448;2023-04-24T02:42:48;3.83;;;1.70;;
14847;SDS011;7516;43.570;1.448;2023-04-24T02:45:15;4.30;;;1.20;;
14847;SDS011;7516;43.570;1.448;2023-04-24T02:47:43;2.20;;;1.20;;
14847;SDS011;7516;43.570;1.448;2023-04-24T02:50:12;2.27;;;1.10;;
14847;SDS011;7516;43.570;1.448;2023-04-24T02:52:39;4.63;;;1.20;;
14847;SDS011;7516;43.570;1.448;2023-04-24T02:55:07;4.80;;;1.10;;
14847;SDS011;7516;43.570;1.448;2023-04-24T02:57:35;4.20;;;1.17;;
14847;SDS011;7516;43.570;1.448;2023-04-24T03:00:02;2.57;;;1.13;;
14847;SDS011;7516;43.570;1.448;2023-04-24T03:02:32;4.20;;;1.27;;
14847;SDS011;7516;43.570;1.448;2023-04-24T03:04:59;3.47;;;1.40;;
14847;SDS011;7516;43.570;1.448;2023-04-24T03:07:28;2.80;;;1.10;;
14847;SDS011;7516;43.570;1.448;2023-04-24T03:09:57;3.03;;;1.40;;
14847;SDS011;7516;43.570;1.448;2023-04-24T03:12:24;2.83;;;1.00;;
14847;SDS011;7516;43.570;1.448;2023-04-24T03:14:52;4.67;;;1.33;;
14847;SDS011;7516;43.570;1.448;2023-04-24T03:17:19;4.73;;;1.27;;
14847;SDS011;7516;43.570;1.448;2023-04-24T03:19:47;3.37;;;1.20;;
14847;SDS011;7516;43.570;1.448;2023-04-24T03:22:14;3.63;;;1.40;;
14847;SDS011;7516;43.570;1.448;2023-04-24T03:24:43;3.83;;;1.20;;
14847;SDS011;7516;43.570;1.448;2023-04-24T03:27:11;4.60;;;1.40;;
14847;SDS011;7516;43.570;1.448;2023-04-24T03:29:38;5.00;;;1.60;;
14847;SDS011;7516;43.570;1.448;2023-04-24T03:32:06;3.30;;;1.10;;
14847;SDS011;7516;43.570;1.448;2023-04-24T03:34:33;5.03;;;1.47;;
14847;SDS011;7516;43.570;1.448;2023-04-24T03:37:01;5.60;;;1.30;;
14847;SDS011;7516;43.570;1.448;2023-04-24T03:39:28;3.90;;;1.20;;
14847;SDS011;7516;43.570;1.448;2023-04-24T03:41:57;2.40;;;1.13;;
14847;SDS011;7516;43.570;1.448;2023-04-24T03:44:25;5.50;;;1.63;;
14847;SDS011;7516;43.570;1.448;2023-04-24T03:46:52;3.80;;;1.50;;
14847;SDS011;7516;43.570;1.448;2023-04-24T03:49:20;2.50;;;1.13;;
14847;SDS011;7516;43.570;1.448;2023-04-24T03:51:47;4.27;;;1.10;;
14847;SDS011;7516;43.570;1.448;2023-04-24T03:54:15;4.27;;;1.53;;
14847;SDS011;7516;43.570;1.448;2023-04-24T03:56:43;3.93;;;1.10;;
14847;SDS011;7516;43.570;1.448;2023-04-24T03:59:12;3.37;;;1.20;;
14847;SDS011;7516;43.570;1.448;2023-04-24T04:01:39;5.40;;;1.43;;
14847;SDS011;7516;43.570;1.448;2023-04-24T04:04:07;5.70;;;1.23;;
14847;SDS011;7516;43.570;1.448;2023-04-24T04:06:35;5.07;;;1.10;;
14847;SDS011;7516;43.570;1.448;2023-04-24T04:09:02;4.83;;;1.40;;
14847;SDS011;7516;43.570;1.448;2023-04-24T04:11:30;3.37;;;1.20;;
14847;SDS011;7516;43.570;1.448;2023-04-24T04:13:58;2.63;;;1.10;;
14847;SDS011;7516;43.570;1.448;2023-04-24T04:16:27;3.13;;;1.30;;
14847;SDS011;7516;43.570;1.448;2023-04-24T04:18:54;4.90;;;1.40;;
14847;SDS011;7516;43.570;1.448;2023-04-24T04:21:22;3.00;;;1.27;;
14847;SDS011;7516;43.570;1.448;2023-04-24T04:23:50;2.53;;;1.13;;
14847;SDS011;7516;43.570;1.448;2023-04-24T04:26:17;3.73;;;1.30;;
14847;SDS011;7516;43.570;1.448;2023-04-24T04:28:46;4.00;;;1.50;;
14847;SDS011;7516;43.570;1.448;2023-04-24T04:31:14;3.77;;;1.17;;
14847;SDS011;7516;43.570;1.448;2023-04-24T04:33:43;5.23;;;1.23;;
14847;SDS011;7516;43.570;1.448;2023-04-24T04:36:10;3.60;;;1.20;;
14847;SDS011;7516;43.570;1.448;2023-04-24T04:38:37;3.00;;;1.23;;
14847;SDS011;7516;43.570;1.448;2023-04-24T04:41:05;4.00;;;1.00;;
14847;SDS011;7516;43.570;1.448;2023-04-24T04:43:33;4.87;;;1.60;;
14847;SDS011;7516;43.570;1.448;2023-04-24T04:46:01;4.40;;;1.10;;
14847;SDS011;7516;43.570;1.448;2023-04-24T04:48:29;5.10;;;1.17;;
14847;SDS011;7516;43.570;1.448;2023-04-24T04:50:58;4.23;;;1.30;;
14847;SDS011;7516;43.570;1.448;2023-04-24T04:53:26;5.53;;;1.30;;
14847;SDS011;7516;43.570;1.448;2023-04-24T04:55:53;4.97;;;1.03;;
14847;SDS011;7516;43.570;1.448;2023-04-24T04:58:21;3.77;;;1.10;;
14847;SDS011;7516;43.570;1.448;2023-04-24T05:00:48;3.57;;;1.27;;
14847;SDS011;7516;43.570;1.448;2023-04-24T05:03:17;3.10;;;1.10;;
14847;SDS011;7516;43.570;1.448;2023-04-24T05:05:44;4.10;;;1.03;;
14847;SDS011;7516;43.570;1.448;2023-04-24T05:08:13;4.90;;;1.33;;
14847;SDS011;7516;43.570;1.448;2023-04-24T05:10:41;5.43;;;1.50;;
14847;SDS011;7516;43.570;1.448;2023-04-24T05:13:09;4.57;;;1.20;;
14847;SDS011;7516;43.570;1.448;2023-04-24T05:15:36;4.10;;;1.30;;
14847;SDS011;7516;43.570;1.448;2023-04-24T05:18:04;2.93;;;1.00;;
14847;SDS011;7516;43.570;1.448;2023-04-24T05:20:31;5.93;;;1.17;;
14847;SDS011;7516;43.570;1.448;2023-04-24T05:22:59;4.90;;;1.37;;
14847;SDS011;7516;43.570;1.448;2023-04-24T05:25:28;4.87;;;1.23;;
14847;SDS011;7516;43.570;1.448;2023-04-24T05:28:00;3.87;;;1.17;;
14847;SDS011;7516;43.570;1.448;2023-04-24T05:30:28;5.80;;;1.20;;
14847;SDS011;7516;43.570;1.448;2023-04-24T05:32:55;4.83;;;1.33;;
14847;SDS011;7516;43.570;1.448;2023-04-24T05:35:23;6.23;;;1.50;;
14847;SDS011;7516;43.570;1.448;2023-04-24T05:37:50;5.20;;;1.50;;
14847;SDS011;7516;43.570;1.448;2023-04-24T05:40:18;6.97;;;1.70;;
14847;SDS011;7516;43.570;1.448;2023-04-24T05:42:46;6.50;;;1.53;;
14847;SDS011;7516;43.570;1.448;2023-04-24T05:45:14;4.73;;;1.60;;
14847;SDS011;7516;43.570;1.448;2023-04-24T05:47:41;4.70;;;1.23;;
14847;SDS011;7516;43.570;1.448;2023-04-24T05:50:10;4.27;;;1.50;;
14847;SDS011;7516;43.570;1.448;2023-04-24T05:52:38;6.53;;;1.90;;
14847;SDS011;7516;43.570;1.448;2023-04-24T05:55:05;7.00;;;2.20;;
14847;SDS011;7516;43.570;1.448;2023-04-24T05:57:33;6.57;;;1.77;;
14847;SDS011;7516;43.570;1.448;2023-04-24T06:00:03;6.03;;;1.40;;
14847;SDS011;7516;43.570;1.448;2023-04-24T06:02:31;6.40;;;1.40;;
14847;SDS011;7516;43.570;1.448;2023-04-24T06:04:59;5.00;;;1.60;;
14847;SDS011;7516;43.570;1.448;2023-04-24T06:07:26;3.50;;;1.20;;
14847;SDS011;7516;43.570;1.448;2023-04-24T06:09:54;3.93;;;1.63;;
14847;SDS011;7516;43.570;1.448;2023-04-24T06:12:21;5.87;;;1.50;;
14847;SDS011;7516;43.570;1.448;2023-04-24T06:14:49;6.17;;;1.60;;
14847;SDS011;7516;43.570;1.448;2023-04-24T06:17:18;5.90;;;1.33;;
14847;SDS011;7516;43.570;1.448;2023-04-24T06:19:46;5.23;;;1.30;;
14847;SDS011;7516;43.570;1.448;2023-04-24T06:22:13;5.87;;;1.53;;
14847;SDS011;7516;43.570;1.448;2023-04-24T06:24:41;5.63;;;1.60;;
14847;SDS011;7516;43.570;1.448;2023-04-24T06:27:08;6.07;;;1.40;;
14847;SDS011;7516;43.570;1.448;2023-04-24T06:29:36;5.07;;;1.40;;
14847;SDS011;7516;43.570;1.448;2023-04-24T06:32:04;6.20;;;1.40;;
14847;SDS011;7516;43.570;1.448;2023-04-24T06:34:32;7.67;;;1.73;;
14847;SDS011;7516;43.570;1.448;2023-04-24T06:37:01;6.90;;;1.60;;
14847;SDS011;7516;43.570;1.448;2023-04-24T06:39:29;7.90;;;1.43;;
14847;SDS011;7516;43.570;1.448;2023-04-24T06:41:56;5.83;;;1.50;;
14847;SDS011;7516;43.570;1.448;2023-04-24T06:44:24;5.80;;;1.30;;
14847;SDS011;7516;43.570;1.448;2023-04-24T06:46:52;5.30;;;1.60;;
14847;SDS011;7516;43.570;1.448;2023-04-24T06:49:19;5.07;;;1.90;;
14847;SDS011;7516;43.570;1.448;2023-04-24T06:51:48;9.00;;;1.90;;
14847;SDS011;7516;43.570;1.448;2023-04-24T06:54:15;4.57;;;1.77;;
14847;SDS011;7516;43.570;1.448;2023-04-24T06:56:43;6.03;;;1.80;;
14847;SDS011;7516;43.570;1.448;2023-04-24T06:59:12;6.10;;;1.57;;
14847;SDS011;7516;43.570;1.448;2023-04-24T07:01:40;4.57;;;1.30;;
14847;SDS011;7516;43.570;1.448;2023-04-24T07:04:07;7.17;;;1.70;;
14847;SDS011;7516;43.570;1.448;2023-04-24T07:06:37;6.60;;;1.80;;
14847;SDS011;7516;43.570;1.448;2023-04-24T07:09:06;5.00;;;1.50;;
14847;SDS011;7516;43.570;1.448;2023-04-24T07:11:34;6.77;;;2.17;;
14847;SDS011;7516;43.570;1.448;2023-04-24T07:14:03;7.27;;;1.87;;
14847;SDS011;7516;43.570;1.448;2023-04-24T07:16:31;7.03;;;1.80;;
14847;SDS011;7516;43.570;1.448;2023-04-24T07:18:58;6.40;;;1.60;;
14847;SDS011;7516;43.570;1.448;2023-04-24T07:21:26;7.07;;;1.73;;
14847;SDS011;7516;43.570;1.448;2023-04-24T07:23:54;9.33;;;2.00;;
14847;SDS011;7516;43.570;1.448;2023-04-24T07:26:23;5.50;;;1.80;;
14847;SDS011;7516;43.570;1.448;2023-04-24T07:28:51;7.23;;;1.67;;
14847;SDS011;7516;43.570;1.448;2023-04-24T07:31:18;6.93;;;1.73;;
14847;SDS011;7516;43.570;1.448;2023-04-24T07:33:46;5.87;;;1.70;;
14847;SDS011;7516;43.570;1.448;2023-04-24T07:36:15;3.53;;;1.30;;
14847;SDS011;7516;43.570;1.448;2023-04-24T07:38:44;5.30;;;1.53;;
14847;SDS011;7516;43.570;1.448;2023-04-24T07:41:11;3.53;;;1.00;;
14847;SDS011;7516;43.570;1.448;2023-04-24T07:43:41;2.67;;;0.83;;
14847;SDS011;7516;43.570;1.448;2023-04-24T07:46:08;2.47;;;1.07;;
14847;SDS011;7516;43.570;1.448;2023-04-24T07:48:36;4.00;;;1.03;;
14847;SDS011;7516;43.570;1.448;2023-04-24T07:51:03;2.37;;;0.93;;
14847;SDS011;7516;43.570;1.448;2023-04-24T07:53:31;1.60;;;0.70;;
14847;SDS011;7516;43.570;1.448;2023-04-24T07:55:58;3.27;;;0.90;;
14847;SDS011;7516;43.570;1.448;2023-04-24T07:58:26;5.80;;;0.83;;
14847;SDS011;7516;43.570;1.448;2023-04-24T08:00:55;2.07;;;0.83;;
14847;SDS011;7516;43.570;1.448;2023-04-24T08:03:22;4.27;;;1.00;;
14847;SDS011;7516;43.570;1.448;2023-04-24T08:05:50;3.63;;;0.90;;
14847;SDS011;7516;43.570;1.448;2023-04-24T08:08:18;4.03;;;0.97;;
14847;SDS011;7516;43.570;1.448;2023-04-24T08:10:47;4.93;;;1.33;;
14847;SDS011;7516;43.570;1.448;2023-04-24T08:13:15;4.47;;;1.17;;
14847;SDS011;7516;43.570;1.448;2023-04-24T08:15:42;5.27;;;1.10;;
14847;SDS011;7516;43.570;1.448;2023-04-24T08:18:11;3.93;;;1.37;;
14847;SDS011;7516;43.570;1.448;2023-04-24T08:20:40;2.60;;;0.73;;
14847;SDS011;7516;43.570;1.448;2023-04-24T08:23:08;6.03;;;1.30;;
14847;SDS011;7516;43.570;1.448;2023-04-24T08:25:35;5.37;;;1.10;;
14847;SDS011;7516;43.570;1.448;2023-04-24T08:28:03;5.30;;;1.40;;
14847;SDS011;7516;43.570;1.448;2023-04-24T08:30:31;4.73;;;1.10;;
14847;SDS011;7516;43.570;1.448;2023-04-24T08:32:59;6.13;;;1.17;;
14847;SDS011;7516;43.570;1.448;2023-04-24T08:35:28;3.77;;;1.10;;
14847;SDS011;7516;43.570;1.448;2023-04-24T08:37:56;2.20;;;0.87;;
14847;SDS011;7516;43.570;1.448;2023-04-24T08:40:26;5.23;;;0.97;;
14847;SDS011;7516;43.570;1.448;2023-04-24T08:42:56;4.97;;;1.00;;
14847;SDS011;7516;43.570;1.448;2023-04-24T08:45:25;4.27;;;0.80;;
14847;SDS011;7516;43.570;1.448;2023-04-24T08:47:53;3.50;;;1.00;;
14847;SDS011;7516;43.570;1.448;2023-04-24T08:50:21;4.40;;;0.80;;
14847;SDS011;7516;43.570;1.448;2023-04-24T08:52:50;2.67;;;0.70;;
14847;SDS011;7516;43.570;1.448;2023-04-24T08:55:19;2.20;;;0.80;;
14847;SDS011;7516;43.570;1.448;2023-04-24T08:57:50;2.77;;;1.00;;
14847;SDS011;7516;43.570;1.448;2023-04-24T09:00:18;2.50;;;0.73;;
14847;SDS011;7516;43.570;1.448;2023-04-24T09:02:47;3.27;;;0.97;;
14847;SDS011;7516;43.570;1.448;2023-04-24T09:05:16;4.77;;;0.97;;
14847;SDS011;7516;43.570;1.448;2023-04-24T09:07:45;3.93;;;0.90;;
14847;SDS011;7516;43.570;1.448;2023-04-24T09:10:17;4.17;;;0.93;;
14847;SDS011;7516;43.570;1.448;2023-04-24T09:12:45;3.93;;;0.70;;
14847;SDS011;7516;43.570;1.448;2023-04-24T09:15:13;4.17;;;1.07;;
14847;SDS011;7516;43.570;1.448;2023-04-24T09:17:41;3.97;;;0.90;;
14847;SDS011;7516;43.570;1.448;2023-04-24T09:20:09;7.03;;;1.00;;
14847;SDS011;7516;43.570;1.448;2023-04-24T09:22:37;3.70;;;0.80;;
14847;SDS011;7516;43.570;1.448;2023-04-24T09:25:05;3.43;;;0.70;;
14847;SDS011;7516;43.570;1.448;2023-04-24T09:27:35;1.70;;;0.70;;
14847;SDS011;7516;43.570;1.448;2023-04-24T09:30:07;4.00;;;0.80;;
14847;SDS011;7516;43.570;1.448;2023-04-24T09:32:35;2.70;;;0.77;;
14847;SDS011;7516;43.570;1.448;2023-04-24T09:35:06;5.53;;;1.00;;
14847;SDS011;7516;43.570;1.448;2023-04-24T09:37:36;2.80;;;1.00;;
14847;SDS011;7516;43.570;1.448;2023-04-24T09:40:08;3.97;;;1.00;;
14847;SDS011;7516;43.570;1.448;2023-04-24T09:42:39;6.40;;;1.37;;
14847;SDS011;7516;43.570;1.448;2023-04-24T09:45:09;3.80;;;0.90;;
14847;SDS011;7516;43.570;1.448;2023-04-24T09:47:37;4.17;;;1.10;;
14847;SDS011;7516;43.570;1.448;2023-04-24T09:50:09;4.87;;;0.87;;
14847;SDS011;7516;43.570;1.448;2023-04-24T09:52:42;4.03;;;0.80;;
14847;SDS011;7516;43.570;1.448;2023-04-24T09:55:10;1.70;;;0.70;;
14847;SDS011;7516;43.570;1.448;2023-04-24T09:57:58;2.70;;;0.93;;
14847;SDS011;7516;43.570;1.448;2023-04-24T10:00:27;4.20;;;0.90;;
14847;SDS011;7516;43.570;1.448;2023-04-24T10:02:56;1.53;;;0.67;;
14847;SDS011;7516;43.570;1.448;2023-04-24T10:05:25;2.37;;;0.90;;
14847;SDS011;7516;43.570;1.448;2023-04-24T10:07:59;3.03;;;1.03;;
14847;SDS011;7516;43.570;1.448;2023-04-24T10:10:29;2.47;;;0.90;;
14847;SDS011;7516;43.570;1.448;2023-04-24T10:12:59;3.67;;;0.70;;
14847;SDS011;7516;43.570;1.448;2023-04-24T10:15:27;3.47;;;0.90;;
14847;SDS011;7516;43.570;1.448;2023-04-24T10:17:54;3.67;;;0.80;;
14847;SDS011;7516;43.570;1.448;2023-04-24T10:20:25;2.50;;;0.80;;
14847;SDS011;7516;43.570;1.448;2023-04-24T10:22:55;3.80;;;0.80;;
14847;SDS011;7516;43.570;1.448;2023-04-24T10:25:24;2.90;;;0.90;;
14847;SDS011;7516;43.570;1.448;2023-04-24T10:27:53;4.10;;;0.90;;
14847;SDS011;7516;43.570;1.448;2023-04-24T10:30:26;2.27;;;0.90;;
14847;SDS011;7516;43.570;1.448;2023-04-24T10:32:54;2.47;;;1.00;;
14847;SDS011;7516;43.570;1.448;2023-04-24T10:35:22;3.13;;;0.87;;
14847;SDS011;7516;43.570;1.448;2023-04-24T10:37:54;3.70;;;0.90;;
14847;SDS011;7516;43.570;1.448;2023-04-24T10:40:25;3.23;;;0.70;;
14847;SDS011;7516;43.570;1.448;2023-04-24T10:42:53;2.73;;;0.90;;
14847;SDS011;7516;43.570;1.448;2023-04-24T10:45:22;2.80;;;0.60;;
14847;SDS011;7516;43.570;1.448;2023-04-24T10:47:52;4.40;;;0.80;;
14847;SDS011;7516;43.570;1.448;2023-04-24T10:50:23;1.97;;;0.60;;
14847;SDS011;7516;43.570;1.448;2023-04-24T10:52:52;2.63;;;0.90;;
14847;SDS011;7516;43.570;1.448;2023-04-24T10:58:14;2.03;;;0.70;;
14847;SDS011;7516;43.570;1.448;2023-04-24T11:00:43;2.97;;;0.97;;
14847;SDS011;7516;43.570;1.448;2023-04-24T11:03:26;2.07;;;0.70;;
14847;SDS011;7516;43.570;1.448;2023-04-24T11:05:56;3.70;;;1.37;;
14847;SDS011;7516;43.570;1.448;2023-04-24T11:08:29;2.10;;;1.00;;
14847;SDS011;7516;43.570;1.448;2023-04-24T11:11:03;3.13;;;1.20;;
14847;SDS011;7516;43.570;1.448;2023-04-24T11:16:28;1.90;;;1.00;;
14847;SDS011;7516;43.570;1.448;2023-04-24T11:19:04;3.57;;;1.20;;
14847;SDS011;7516;43.570;1.448;2023-04-24T11:21:39;3.53;;;1.10;;
14847;SDS011;7516;43.570;1.448;2023-04-24T11:27:12;3.73;;;1.10;;
14847;SDS011;7516;43.570;1.448;2023-04-24T11:29:42;5.87;;;0.90;;
14847;SDS011;7516;43.570;1.448;2023-04-24T11:32:18;2.60;;;1.10;;
14847;SDS011;7516;43.570;1.448;2023-04-24T11:34:58;4.50;;;0.80;;
14847;SDS011;7516;43.570;1.448;2023-04-24T11:37:27;2.53;;;0.80;;
14847;SDS011;7516;43.570;1.448;2023-04-24T11:39:59;5.20;;;1.20;;
14847;SDS011;7516;43.570;1.448;2023-04-24T11:42:27;4.13;;;1.00;;
14847;SDS011;7516;43.570;1.448;2023-04-24T11:44:59;1.77;;;0.70;;
14847;SDS011;7516;43.570;1.448;2023-04-24T11:47:27;3.53;;;1.20;;
14847;SDS011;7516;43.570;1.448;2023-04-24T11:49:56;2.67;;;1.00;;
14847;SDS011;7516;43.570;1.448;2023-04-24T11:52:25;3.57;;;1.00;;
14847;SDS011;7516;43.570;1.448;2023-04-24T11:54:53;3.97;;;0.90;;
14847;SDS011;7516;43.570;1.448;2023-04-24T11:57:21;4.53;;;0.93;;
14847;SDS011;7516;43.570;1.448;2023-04-24T11:59:52;2.07;;;0.93;;
14847;SDS011;7516;43.570;1.448;2023-04-24T12:02:21;2.47;;;1.00;;
14847;SDS011;7516;43.570;1.448;2023-04-24T12:04:50;3.23;;;0.97;;
14847;SDS011;7516;43.570;1.448;2023-04-24T12:07:19;3.73;;;0.80;;
14847;SDS011;7516;43.570;1.448;2023-04-24T12:09:49;4.07;;;1.10;;
14847;SDS011;7516;43.570;1.448;2023-04-24T12:12:22;4.30;;;1.00;;
14847;SDS011;7516;43.570;1.448;2023-04-24T12:14:53;2.50;;;1.00;;
14847;SDS011;7516;43.570;1.448;2023-04-24T12:17:25;2.63;;;0.90;;
14847;SDS011;7516;43.570;1.448;2023-04-24T12:19:56;5.87;;;1.10;;
14847;SDS011;7516;43.570;1.448;2023-04-24T12:22:27;3.70;;;0.90;;
14847;SDS011;7516;43.570;1.448;2023-04-24T12:24:56;2.73;;;0.90;;
14847;SDS011;7516;43.570;1.448;2023-04-24T12:27:30;4.73;;;1.00;;
14847;SDS011;7516;43.570;1.448;2023-04-24T12:29:59;4.67;;;0.90;;
14847;SDS011;7516;43.570;1.448;2023-04-24T12:32:28;4.37;;;1.07;;
14847;SDS011;7516;43.570;1.448;2023-04-24T12:34:56;2.23;;;0.93;;
14847;SDS011;7516;43.570;1.448;2023-04-24T12:37:24;2.53;;;0.83;;
14847;SDS011;7516;43.570;1.448;2023-04-24T12:39:59;3.27;;;1.17;;
14847;SDS011;7516;43.570;1.448;2023-04-24T12:42:32;2.63;;;0.90;;
14847;SDS011;7516;43.570;1.448;2023-04-24T12:45:00;2.83;;;0.83;;
14847;SDS011;7516;43.570;1.448;2023-04-24T12:47:29;5.63;;;1.60;;
14847;SDS011;7516;43.570;1.448;2023-04-24T12:49:58;2.70;;;1.00;;
14847;SDS011;7516;43.570;1.448;2023-04-24T12:52:27;2.40;;;0.90;;
14847;SDS011;7516;43.570;1.448;2023-04-24T12:54:56;3.83;;;1.00;;
14847;SDS011;7516;43.570;1.448;2023-04-24T12:57:25;2.87;;;0.90;;
14847;SDS011;7516;43.570;1.448;2023-04-24T12:59:54;3.73;;;1.00;;
14847;SDS011;7516;43.570;1.448;2023-04-24T13:02:22;2.93;;;0.90;;
14847;SDS011;7516;43.570;1.448;2023-04-24T13:04:51;4.10;;;0.80;;
14847;SDS011;7516;43.570;1.448;2023-04-24T13:07:19;3.17;;;0.80;;
14847;SDS011;7516;43.570;1.448;2023-04-24T13:09:48;2.73;;;0.90;;
14847;SDS011;7516;43.570;1.448;2023-04-24T13:12:17;5.10;;;0.90;;
14847;SDS011;7516;43.570;1.448;2023-04-24T13:14:45;1.83;;;1.00;;
14847;SDS011;7516;43.570;1.448;2023-04-24T13:17:12;3.47;;;1.10;;
14847;SDS011;7516;43.570;1.448;2023-04-24T13:19:41;1.90;;;0.80;;
14847;SDS011;7516;43.570;1.448;2023-04-24T13:22:10;5.13;;;1.10;;
14847;SDS011;7516;43.570;1.448;2023-04-24T13:24:38;2.80;;;1.10;;
14847;SDS011;7516;43.570;1.448;2023-04-24T13:27:08;3.90;;;0.93;;
14847;SDS011;7516;43.570;1.448;2023-04-24T13:29:35;3.30;;;0.93;;
14847;SDS011;7516;43.570;1.448;2023-04-24T13:32:03;1.67;;;0.73;;
14847;SDS011;7516;43.570;1.448;2023-04-24T13:34:31;2.37;;;0.90;;
14847;SDS011;7516;43.570;1.448;2023-04-24T13:36:59;5.00;;;1.00;;
14847;SDS011;7516;43.570;1.448;2023-04-24T13:39:28;1.70;;;0.90;;
14847;SDS011;7516;43.570;1.448;2023-04-24T13:41:56;2.80;;;0.90;;
14847;SDS011;7516;43.570;1.448;2023-04-24T13:44:26;2.57;;;0.80;;
14847;SDS011;7516;43.570;1.448;2023-04-24T13:46:54;4.27;;;0.83;;
14847;SDS011;7516;43.570;1.448;2023-04-24T13:49:22;2.67;;;0.90;;
14847;SDS011;7516;43.570;1.448;2023-04-24T13:51:51;2.97;;;0.90;;
14847;SDS011;7516;43.570;1.448;2023-04-24T13:54:19;3.33;;;0.83;;
14847;SDS011;7516;43.570;1.448;2023-04-24T13:56:48;4.13;;;0.90;;
14847;SDS011;7516;43.570;1.448;2023-04-24T13:59:15;3.67;;;1.00;;
14847;SDS011;7516;43.570;1.448;2023-04-24T14:01:44;3.60;;;1.03;;
14847;SDS011;7516;43.570;1.448;2023-04-24T14:04:12;3.60;;;1.30;;
14847;SDS011;7516;43.570;1.448;2023-04-24T14:06:40;2.53;;;1.07;;
14847;SDS011;7516;43.570;1.448;2023-04-24T14:09:07;6.13;;;1.03;;
14847;SDS011;7516;43.570;1.448;2023-04-24T14:11:35;4.13;;;1.10;;
14847;SDS011;7516;43.570;1.448;2023-04-24T14:14:02;5.63;;;1.40;;
14847;SDS011;7516;43.570;1.448;2023-04-24T14:16:30;5.43;;;1.20;;
14847;SDS011;7516;43.570;1.448;2023-04-24T14:18:59;3.17;;;1.17;;
14847;SDS011;7516;43.570;1.448;2023-04-24T14:21:27;3.70;;;1.20;;
14847;SDS011;7516;43.570;1.448;2023-04-24T14:23:55;6.70;;;1.20;;
14847;SDS011;7516;43.570;1.448;2023-04-24T14:26:22;2.20;;;1.00;;
14847;SDS011;7516;43.570;1.448;2023-04-24T14:28:50;8.23;;;1.43;;
14847;SDS011;7516;43.570;1.448;2023-04-24T14:31:20;3.17;;;1.00;;
14847;SDS011;7516;43.570;1.448;2023-04-24T14:33:47;4.00;;;1.10;;
14847;SDS011;7516;43.570;1.448;2023-04-24T14:36:16;2.13;;;1.00;;
14847;SDS011;7516;43.570;1.448;2023-04-24T14:38:43;2.90;;;1.27;;
14847;SDS011;7516;43.570;1.448;2023-04-24T14:41:11;3.70;;;0.93;;
14847;SDS011;7516;43.570;1.448;2023-04-24T14:43:38;4.17;;;0.90;;
14847;SDS011;7516;43.570;1.448;2023-04-24T14:46:06;5.00;;;1.30;;
14847;SDS011;7516;43.570;1.448;2023-04-24T14:48:34;3.67;;;1.13;;
14847;SDS011;7516;43.570;1.448;2023-04-24T14:51:01;5.97;;;2.23;;
14847;SDS011;7516;43.570;1.448;2023-04-24T14:53:30;4.23;;;1.30;;
14847;SDS011;7516;43.570;1.448;2023-04-24T14:55:58;2.50;;;0.90;;
14847;SDS011;7516;43.570;1.448;2023-04-24T14:58:25;3.13;;;0.80;;
14847;SDS011;7516;43.570;1.448;2023-04-24T15:00:53;2.30;;;0.80;;
14847;SDS011;7516;43.570;1.448;2023-04-24T15:03:21;2.80;;;0.97;;
14847;SDS011;7516;43.570;1.448;2023-04-24T15:05:48;3.03;;;0.90;;
14847;SDS011;7516;43.570;1.448;2023-04-24T15:08:16;1.73;;;0.90;;
14847;SDS011;7516;43.570;1.448;2023-04-24T15:10:45;4.53;;;1.60;;
14847;SDS011;7516;43.570;1.448;2023-04-24T15:13:13;4.13;;;1.10;;
14847;SDS011;7516;43.570;1.448;2023-04-24T15:15:41;3.53;;;0.90;;
14847;SDS011;7516;43.570;1.448;2023-04-24T15:18:08;3.37;;;1.17;;